sensor_id;sensor_type;location;lat;lon;timestamp;pressure;altitude;pressure_sealevel;temperature;humidity
68193;BME280;55012;47.562;18.414;2023-07-29T00:00:41;98538.03;;;20.12;100.00
68193;BME280;55012;47.562;18.414;2023-07-29T00:03:07;98544.78;;;20.07;100.00
68193;BME280;55012;47.562;18.414;2023-07-29T00:05:33;98545.06;;;19.93;100.00
68193;BME280;55012;47.562;18.414;2023-07-29T00:07:59;98533.69;;;19.75;100.00
68193;BME280;55012;47.562;18.414;2023-07-29T00:10:25;98519.91;;;19.58;100.00
68193;BME280;55012;47.562;18.414;2023-07-29T00:12:51;98508.41;;;19.44;100.00
68193;BME280;55012;47.562;18.414;2023-07-29T00:15:16;98488.72;;;19.29;100.00
68193;BME280;55012;47.562;18.414;2023-07-29T00:17:42;98474.00;;;19.19;100.00
68193;BME280;55012;47.562;18.414;2023-07-29T00:20:07;98457.00;;;19.08;100.00
68193;BME280;55012;47.562;18.414;2023-07-29T00:22:33;98448.63;;;18.95;100.00
68193;BME280;55012;47.562;18.414;2023-07-29T00:24:58;98429.56;;;18.88;100.00
68193;BME280;55012;47.562;18.414;2023-07-29T00:27:25;98415.66;;;18.79;100.00
68193;BME280;55012;47.562;18.414;2023-07-29T00:29:50;98403.69;;;18.69;100.00
68193;BME280;55012;47.562;18.414;2023-07-29T00:32:16;98395.63;;;18.59;100.00
68193;BME280;55012;47.562;18.414;2023-07-29T00:34:41;98383.31;;;18.47;100.00
68193;BME280;55012;47.562;18.414;2023-07-29T00:37:07;98364.69;;;18.38;100.00
68193;BME280;55012;47.562;18.414;2023-07-29T00:39:32;98349.22;;;18.28;100.00
68193;BME280;55012;47.562;18.414;2023-07-29T00:41:58;98339.56;;;18.20;100.00
68193;BME280;55012;47.562;18.414;2023-07-29T00:44:23;98334.63;;;18.11;100.00
68193;BME280;55012;47.562;18.414;2023-07-29T00:46:52;98326.06;;;18.09;100.00
68193;BME280;55012;47.562;18.414;2023-07-29T00:49:19;98314.34;;;18.09;100.00
68193;BME280;55012;47.562;18.414;2023-07-29T00:51:44;98315.91;;;18.10;100.00
68193;BME280;55012;47.562;18.414;2023-07-29T00:54:10;98312.41;;;18.09;100.00
68193;BME280;55012;47.562;18.414;2023-07-29T00:56:36;98304.94;;;18.10;100.00
68193;BME280;55012;47.562;18.414;2023-07-29T00:59:02;98310.84;;;18.08;100.00
68193;BME280;55012;47.562;18.414;2023-07-29T01:01:28;98308.19;;;18.05;100.00
68193;BME280;55012;47.562;18.414;2023-07-29T01:03:54;98300.75;;;18.05;100.00
68193;BME280;55012;47.562;18.414;2023-07-29T01:06:46;98302.00;;;18.01;100.00
68193;BME280;55012;47.562;18.414;2023-07-29T01:17:29;98293.09;;;17.96;100.00
68193;BME280;55012;47.562;18.414;2023-07-29T01:20:01;98294.66;;;17.94;100.00
68193;BME280;55012;47.562;18.414;2023-07-29T01:22:32;98302.19;;;17.90;100.00
68193;BME280;55012;47.562;18.414;2023-07-29T01:24:58;98299.97;;;17.81;100.00
68193;BME280;55012;47.562;18.414;2023-07-29T01:27:24;98306.69;;;17.77;100.00
68193;BME280;55012;47.562;18.414;2023-07-29T01:29:50;98325.13;;;17.73;100.00
68193;BME280;55012;47.562;18.414;2023-07-29T01:35:33;98335.41;;;17.61;100.00
68193;BME280;55012;47.562;18.414;2023-07-29T01:38:14;98342.13;;;17.57;100.00
68193;BME280;55012;47.562;18.414;2023-07-29T01:40:42;98351.94;;;17.54;100.00
68193;BME280;55012;47.562;18.414;2023-07-29T01:43:08;98353.53;;;17.52;100.00
68193;BME280;55012;47.562;18.414;2023-07-29T01:45:33;98345.78;;;17.47;100.00
68193;BME280;55012;47.562;18.414;2023-07-29T01:48:07;98352.44;;;17.46;100.00
68193;BME280;55012;47.562;18.414;2023-07-29T01:50:33;98356.78;;;17.43;100.00
68193;BME280;55012;47.562;18.414;2023-07-29T01:52:59;98383.75;;;17.41;100.00
68193;BME280;55012;47.562;18.414;2023-07-29T01:55:24;98389.63;;;17.39;100.00
68193;BME280;55012;47.562;18.414;2023-07-29T01:57:50;98400.19;;;17.37;100.00
68193;BME280;55012;47.562;18.414;2023-07-29T02:00:18;98412.72;;;17.35;100.00
68193;BME280;55012;47.562;18.414;2023-07-29T02:02:43;98452.19;;;17.34;100.00
68193;BME280;55012;47.562;18.414;2023-07-29T02:05:09;98465.50;;;17.32;100.00
68193;BME280;55012;47.562;18.414;2023-07-29T02:07:34;98493.25;;;17.30;100.00
68193;BME280;55012;47.562;18.414;2023-07-29T02:10:00;98503.78;;;17.28;100.00
68193;BME280;55012;47.562;18.414;2023-07-29T02:12:25;98520.19;;;17.28;100.00
68193;BME280;55012;47.562;18.414;2023-07-29T02:14:50;98517.84;;;17.30;100.00
68193;BME280;55012;47.562;18.414;2023-07-29T02:17:16;98524.75;;;17.42;100.00
68193;BME280;55012;47.562;18.414;2023-07-29T02:19:42;98530.06;;;17.56;100.00
68193;BME280;55012;47.562;18.414;2023-07-29T02:22:07;98524.59;;;17.56;100.00
68193;BME280;55012;47.562;18.414;2023-07-29T02:24:33;98519.91;;;17.53;100.00
68193;BME280;55012;47.562;18.414;2023-07-29T02:26:58;98519.63;;;17.48;100.00
68193;BME280;55012;47.562;18.414;2023-07-29T02:29:24;98522.78;;;17.42;100.00
68193;BME280;55012;47.562;18.414;2023-07-29T02:31:50;98518.94;;;17.36;100.00
68193;BME280;55012;47.562;18.414;2023-07-29T02:34:15;98529.16;;;17.32;100.00
68193;BME280;55012;47.562;18.414;2023-07-29T02:36:41;98526.84;;;17.27;100.00
68193;BME280;55012;47.562;18.414;2023-07-29T02:39:06;98513.22;;;17.24;100.00
68193;BME280;55012;47.562;18.414;2023-07-29T02:41:32;98493.34;;;17.20;100.00
68193;BME280;55012;47.562;18.414;2023-07-29T02:43:57;98483.25;;;17.17;100.00
68193;BME280;55012;47.562;18.414;2023-07-29T02:46:22;98484.84;;;17.14;100.00
68193;BME280;55012;47.562;18.414;2023-07-29T02:48:50;98489.56;;;17.10;100.00
68193;BME280;55012;47.562;18.414;2023-07-29T02:51:16;98475.94;;;17.06;100.00
68193;BME280;55012;47.562;18.414;2023-07-29T02:53:41;98468.91;;;17.05;100.00
68193;BME280;55012;47.562;18.414;2023-07-29T02:56:07;98463.47;;;17.05;100.00
68193;BME280;55012;47.562;18.414;2023-07-29T02:58:34;98450.94;;;17.04;100.00
68193;BME280;55012;47.562;18.414;2023-07-29T03:01:03;98446.28;;;17.05;100.00
68193;BME280;55012;47.562;18.414;2023-07-29T03:03:30;98442.75;;;17.04;100.00
68193;BME280;55012;47.562;18.414;2023-07-29T03:06:05;98451.34;;;17.06;100.00
68193;BME280;55012;47.562;18.414;2023-07-29T03:08:32;98445.88;;;17.06;100.00
68193;BME280;55012;47.562;18.414;2023-07-29T03:10:58;98443.50;;;17.08;100.00
68193;BME280;55012;47.562;18.414;2023-07-29T03:13:23;98440.22;;;17.21;100.00
68193;BME280;55012;47.562;18.414;2023-07-29T03:15:49;98443.25;;;17.60;100.00
68193;BME280;55012;47.562;18.414;2023-07-29T03:18:15;98446.56;;;18.06;100.00
68193;BME280;55012;47.562;18.414;2023-07-29T03:20:41;98448.28;;;18.46;100.00
68193;BME280;55012;47.562;18.414;2023-07-29T03:23:06;98467.97;;;18.61;100.00
68193;BME280;55012;47.562;18.414;2023-07-29T03:25:32;98476.94;;;18.65;100.00
68193;BME280;55012;47.562;18.414;2023-07-29T03:27:57;98486.63;;;18.70;100.00
68193;BME280;55012;47.562;18.414;2023-07-29T03:30:23;98489.06;;;18.64;100.00
68193;BME280;55012;47.562;18.414;2023-07-29T03:32:49;98499.53;;;18.73;100.00
68193;BME280;55012;47.562;18.414;2023-07-29T03:35:14;98483.63;;;18.88;100.00
68193;BME280;55012;47.562;18.414;2023-07-29T03:37:40;98452.00;;;19.03;100.00
68193;BME280;55012;47.562;18.414;2023-07-29T03:40:06;98410.03;;;19.26;100.00
68193;BME280;55012;47.562;18.414;2023-07-29T03:42:32;98375.13;;;19.46;100.00
68193;BME280;55012;47.562;18.414;2023-07-29T03:44:58;98337.28;;;19.57;100.00
68193;BME280;55012;47.562;18.414;2023-07-29T03:47:23;98319.75;;;19.51;100.00
68193;BME280;55012;47.562;18.414;2023-07-29T03:49:49;98319.72;;;19.35;100.00
68193;BME280;55012;47.562;18.414;2023-07-29T03:52:15;98322.88;;;19.17;100.00
68193;BME280;55012;47.562;18.414;2023-07-29T03:54:40;98331.47;;;18.99;100.00
68193;BME280;55012;47.562;18.414;2023-07-29T03:57:06;98345.81;;;18.87;100.00
68193;BME280;55012;47.562;18.414;2023-07-29T03:59:32;98358.13;;;18.79;100.00
68193;BME280;55012;47.562;18.414;2023-07-29T04:01:57;98380.81;;;18.79;100.00
68193;BME280;55012;47.562;18.414;2023-07-29T04:04:23;98398.78;;;18.80;100.00
68193;BME280;55012;47.562;18.414;2023-07-29T04:06:48;98418.75;;;18.81;100.00
68193;BME280;55012;47.562;18.414;2023-07-29T04:09:14;98449.66;;;18.82;100.00
68193;BME280;55012;47.562;18.414;2023-07-29T04:11:39;98462.16;;;18.83;100.00
68193;BME280;55012;47.562;18.414;2023-07-29T04:14:05;98479.03;;;18.81;100.00
68193;BME280;55012;47.562;18.414;2023-07-29T04:16:30;98469.25;;;18.80;100.00
68193;BME280;55012;47.562;18.414;2023-07-29T04:18:55;98464.56;;;18.80;100.00
68193;BME280;55012;47.562;18.414;2023-07-29T04:21:21;98480.50;;;18.86;100.00
68193;BME280;55012;47.562;18.414;2023-07-29T04:23:47;98485.44;;;18.94;100.00
68193;BME280;55012;47.562;18.414;2023-07-29T04:26:12;98477.84;;;19.02;100.00
68193;BME280;55012;47.562;18.414;2023-07-29T04:28:37;98475.00;;;19.09;100.00
68193;BME280;55012;47.562;18.414;2023-07-29T04:31:03;98461.88;;;19.20;100.00
68193;BME280;55012;47.562;18.414;2023-07-29T04:33:29;98457.72;;;19.32;100.00
68193;BME280;55012;47.562;18.414;2023-07-29T04:35:55;98450.81;;;19.44;100.00
68193;BME280;55012;47.562;18.414;2023-07-29T04:38:20;98444.34;;;19.54;100.00
68193;BME280;55012;47.562;18.414;2023-07-29T04:40:46;98431.69;;;19.60;100.00
68193;BME280;55012;47.562;18.414;2023-07-29T04:43:13;98425.28;;;19.67;100.00
68193;BME280;55012;47.562;18.414;2023-07-29T04:45:45;98422.09;;;19.68;100.00
68193;BME280;55012;47.562;18.414;2023-07-29T04:48:10;98426.38;;;19.69;100.00
68193;BME280;55012;47.562;18.414;2023-07-29T04:50:36;98429.06;;;19.73;100.00
68193;BME280;55012;47.562;18.414;2023-07-29T04:53:01;98424.25;;;19.77;100.00
68193;BME280;55012;47.562;18.414;2023-07-29T04:55:27;98416.72;;;19.81;100.00
68193;BME280;55012;47.562;18.414;2023-07-29T04:57:52;98424.47;;;19.86;100.00
68193;BME280;55012;47.562;18.414;2023-07-29T05:00:18;98423.59;;;19.89;100.00
68193;BME280;55012;47.562;18.414;2023-07-29T05:02:43;98410.31;;;19.87;100.00
68193;BME280;55012;47.562;18.414;2023-07-29T05:05:09;98409.59;;;19.83;100.00
68193;BME280;55012;47.562;18.414;2023-07-29T05:07:34;98412.34;;;19.83;100.00
68193;BME280;55012;47.562;18.414;2023-07-29T05:09:59;98413.84;;;19.88;100.00
68193;BME280;55012;47.562;18.414;2023-07-29T05:12:25;98427.91;;;19.90;100.00
68193;BME280;55012;47.562;18.414;2023-07-29T05:14:51;98429.44;;;19.91;100.00
68193;BME280;55012;47.562;18.414;2023-07-29T05:17:16;98438.38;;;19.95;100.00
68193;BME280;55012;47.562;18.414;2023-07-29T05:19:42;98446.09;;;20.00;100.00
68193;BME280;55012;47.562;18.414;2023-07-29T05:22:07;98455.47;;;20.03;100.00
68193;BME280;55012;47.562;18.414;2023-07-29T05:24:32;98467.28;;;20.00;100.00
68193;BME280;55012;47.562;18.414;2023-07-29T05:26:58;98484.56;;;19.80;100.00
68193;BME280;55012;47.562;18.414;2023-07-29T05:29:23;98491.47;;;19.69;100.00
68193;BME280;55012;47.562;18.414;2023-07-29T05:31:49;98505.56;;;19.71;100.00
68193;BME280;55012;47.562;18.414;2023-07-29T05:34:14;98482.25;;;19.79;100.00
68193;BME280;55012;47.562;18.414;2023-07-29T05:36:40;98467.53;;;19.89;100.00
68193;BME280;55012;47.562;18.414;2023-07-29T05:39:05;98437.06;;;19.83;100.00
68193;BME280;55012;47.562;18.414;2023-07-29T05:41:32;98430.59;;;19.74;100.00
68193;BME280;55012;47.562;18.414;2023-07-29T05:43:57;98430.31;;;19.68;100.00
68193;BME280;55012;47.562;18.414;2023-07-29T05:46:22;98433.50;;;19.67;100.00
68193;BME280;55012;47.562;18.414;2023-07-29T05:48:48;98442.16;;;19.65;100.00
68193;BME280;55012;47.562;18.414;2023-07-29T05:51:13;98459.81;;;19.64;100.00
68193;BME280;55012;47.562;18.414;2023-07-29T05:53:39;98451.50;;;19.68;100.00
68193;BME280;55012;47.562;18.414;2023-07-29T05:56:04;98453.28;;;19.78;100.00
68193;BME280;55012;47.562;18.414;2023-07-29T05:58:30;98450.72;;;19.87;100.00
68193;BME280;55012;47.562;18.414;2023-07-29T06:00:57;98460.41;;;19.91;100.00
68193;BME280;55012;47.562;18.414;2023-07-29T06:03:22;98459.91;;;19.97;100.00
68193;BME280;55012;47.562;18.414;2023-07-29T06:05:49;98456.56;;;20.05;100.00
68193;BME280;55012;47.562;18.414;2023-07-29T06:08:14;98446.44;;;20.18;100.00
68193;BME280;55012;47.562;18.414;2023-07-29T06:10:40;98429.13;;;20.38;100.00
68193;BME280;55012;47.562;18.414;2023-07-29T06:13:05;98424.75;;;20.57;100.00
68193;BME280;55012;47.562;18.414;2023-07-29T06:15:31;98423.63;;;20.70;100.00
68193;BME280;55012;47.562;18.414;2023-07-29T06:17:56;98412.34;;;20.81;100.00
68193;BME280;55012;47.562;18.414;2023-07-29T06:20:22;98424.25;;;20.91;100.00
68193;BME280;55012;47.562;18.414;2023-07-29T06:22:47;98439.78;;;20.97;100.00
68193;BME280;55012;47.562;18.414;2023-07-29T06:25:13;98469.72;;;21.08;100.00
68193;BME280;55012;47.562;18.414;2023-07-29T06:27:38;98476.38;;;21.11;100.00
68193;BME280;55012;47.562;18.414;2023-07-29T06:30:04;98506.94;;;21.29;100.00
68193;BME280;55012;47.562;18.414;2023-07-29T06:32:30;98508.19;;;21.41;100.00
68193;BME280;55012;47.562;18.414;2023-07-29T06:34:56;98542.88;;;21.51;100.00
68193;BME280;55012;47.562;18.414;2023-07-29T06:37:21;98570.25;;;21.71;100.00
68193;BME280;55012;47.562;18.414;2023-07-29T06:39:47;98604.53;;;21.82;100.00
68193;BME280;55012;47.562;18.414;2023-07-29T06:42:12;98630.00;;;21.86;100.00
68193;BME280;55012;47.562;18.414;2023-07-29T06:44:38;98650.56;;;21.82;100.00
68193;BME280;55012;47.562;18.414;2023-07-29T06:47:04;98651.66;;;21.72;100.00
68193;BME280;55012;47.562;18.414;2023-07-29T06:49:29;98664.72;;;21.68;100.00
68193;BME280;55012;47.562;18.414;2023-07-29T06:51:55;98646.94;;;21.56;100.00
68193;BME280;55012;47.562;18.414;2023-07-29T06:54:24;98650.91;;;21.55;100.00
68193;BME280;55012;47.562;18.414;2023-07-29T06:56:51;98658.72;;;21.56;100.00
68193;BME280;55012;47.562;18.414;2023-07-29T06:59:16;98653.47;;;21.62;100.00
68193;BME280;55012;47.562;18.414;2023-07-29T07:01:42;98646.84;;;21.59;100.00
68193;BME280;55012;47.562;18.414;2023-07-29T07:04:07;98633.00;;;21.63;100.00
68193;BME280;55012;47.562;18.414;2023-07-29T07:06:33;98642.63;;;21.71;100.00
68193;BME280;55012;47.562;18.414;2023-07-29T07:08:58;98641.88;;;21.83;100.00
68193;BME280;55012;47.562;18.414;2023-07-29T07:11:24;98666.38;;;21.94;100.00
68193;BME280;55012;47.562;18.414;2023-07-29T07:13:49;98694.31;;;22.09;100.00
68193;BME280;55012;47.562;18.414;2023-07-29T07:16:14;98698.34;;;22.21;100.00
68193;BME280;55012;47.562;18.414;2023-07-29T07:18:40;98733.72;;;22.22;100.00
68193;BME280;55012;47.562;18.414;2023-07-29T07:21:06;98752.44;;;22.14;100.00
68193;BME280;55012;47.562;18.414;2023-07-29T07:23:31;98756.84;;;22.12;100.00
68193;BME280;55012;47.562;18.414;2023-07-29T07:25:56;98755.50;;;22.17;100.00
68193;BME280;55012;47.562;18.414;2023-07-29T07:28:22;98766.00;;;22.22;100.00
68193;BME280;55012;47.562;18.414;2023-07-29T07:30:48;98797.78;;;22.26;100.00
68193;BME280;55012;47.562;18.414;2023-07-29T07:33:13;98812.34;;;22.27;100.00
68193;BME280;55012;47.562;18.414;2023-07-29T07:35:39;98807.41;;;22.34;100.00
68193;BME280;55012;47.562;18.414;2023-07-29T07:38:04;98824.75;;;22.48;100.00
68193;BME280;55012;47.562;18.414;2023-07-29T07:40:33;98825.22;;;22.59;100.00
68193;BME280;55012;47.562;18.414;2023-07-29T07:42:59;98852.41;;;22.60;100.00
68193;BME280;55012;47.562;18.414;2023-07-29T07:45:24;98859.34;;;22.65;100.00
68193;BME280;55012;47.562;18.414;2023-07-29T07:47:51;98855.63;;;22.71;100.00
68193;BME280;55012;47.562;18.414;2023-07-29T07:50:18;98862.94;;;22.78;100.00
68193;BME280;55012;47.562;18.414;2023-07-29T07:52:43;98876.56;;;22.85;100.00
68193;BME280;55012;47.562;18.414;2023-07-29T07:55:09;98893.25;;;22.94;100.00
68193;BME280;55012;47.562;18.414;2023-07-29T07:57:34;98893.38;;;23.04;100.00
68193;BME280;55012;47.562;18.414;2023-07-29T08:00:00;98919.22;;;23.10;100.00
68193;BME280;55012;47.562;18.414;2023-07-29T08:02:25;98939.97;;;23.14;100.00
68193;BME280;55012;47.562;18.414;2023-07-29T08:04:51;98943.84;;;23.17;100.00
68193;BME280;55012;47.562;18.414;2023-07-29T08:07:16;98954.47;;;23.18;100.00
68193;BME280;55012;47.562;18.414;2023-07-29T08:09:42;98959.34;;;23.27;100.00
68193;BME280;55012;47.562;18.414;2023-07-29T08:12:07;98964.22;;;23.36;100.00
68193;BME280;55012;47.562;18.414;2023-07-29T08:14:32;98973.94;;;23.40;100.00
68193;BME280;55012;47.562;18.414;2023-07-29T08:16:58;98981.72;;;23.58;100.00
68193;BME280;55012;47.562;18.414;2023-07-29T08:19:24;98552.06;;;23.82;100.00
68193;BME280;55012;47.562;18.414;2023-07-29T08:21:49;98566.44;;;23.99;100.00
68193;BME280;55012;47.562;18.414;2023-07-29T08:24:14;98539.78;;;24.05;100.00
68193;BME280;55012;47.562;18.414;2023-07-29T08:26:40;98543.00;;;24.04;100.00
68193;BME280;55012;47.562;18.414;2023-07-29T08:29:05;98548.59;;;23.91;100.00
68193;BME280;55012;47.562;18.414;2023-07-29T08:31:31;98540.91;;;23.86;100.00
68193;BME280;55012;47.562;18.414;2023-07-29T08:33:59;98532.94;;;23.88;100.00
68193;BME280;55012;47.562;18.414;2023-07-29T08:36:24;98536.22;;;23.96;100.00
68193;BME280;55012;47.562;18.414;2023-07-29T08:38:50;98527.41;;;23.88;100.00
68193;BME280;55012;47.562;18.414;2023-07-29T08:41:25;98523.25;;;23.84;100.00
68193;BME280;55012;47.562;18.414;2023-07-29T08:44:01;98531.53;;;23.84;100.00
68193;BME280;55012;47.562;18.414;2023-07-29T08:46:28;98520.63;;;23.80;100.00
68193;BME280;55012;47.562;18.414;2023-07-29T08:48:55;98529.34;;;23.78;100.00
68193;BME280;55012;47.562;18.414;2023-07-29T08:51:21;98527.06;;;23.77;100.00
68193;BME280;55012;47.562;18.414;2023-07-29T08:53:49;98531.47;;;23.74;100.00
68193;BME280;55012;47.562;18.414;2023-07-29T08:56:15;98522.47;;;23.83;100.00
68193;BME280;55012;47.562;18.414;2023-07-29T08:58:41;98545.66;;;23.86;100.00
68193;BME280;55012;47.562;18.414;2023-07-29T09:01:07;98547.53;;;23.89;100.00
68193;BME280;55012;47.562;18.414;2023-07-29T09:03:32;98539.53;;;23.91;100.00
68193;BME280;55012;47.562;18.414;2023-07-29T09:05:58;98542.19;;;23.94;100.00
68193;BME280;55012;47.562;18.414;2023-07-29T09:08:28;98532.53;;;23.99;100.00
68193;BME280;55012;47.562;18.414;2023-07-29T09:10:54;98533.81;;;24.07;100.00
68193;BME280;55012;47.562;18.414;2023-07-29T09:13:21;98534.03;;;24.22;100.00
68193;BME280;55012;47.562;18.414;2023-07-29T09:15:46;98524.78;;;24.47;100.00
68193;BME280;55012;47.562;18.414;2023-07-29T09:18:16;98507.19;;;24.81;100.00
68193;BME280;55012;47.562;18.414;2023-07-29T09:20:42;98511.28;;;25.16;100.00
68193;BME280;55012;47.562;18.414;2023-07-29T09:23:09;98503.88;;;25.50;100.00
68193;BME280;55012;47.562;18.414;2023-07-29T09:25:39;98533.56;;;25.77;100.00
68193;BME280;55012;47.562;18.414;2023-07-29T09:28:12;98652.34;;;26.02;100.00
68193;BME280;55012;47.562;18.414;2023-07-29T09:30:39;98614.28;;;26.21;100.00
68193;BME280;55012;47.562;18.414;2023-07-29T09:33:06;98906.94;;;26.22;100.00
68193;BME280;55012;47.562;18.414;2023-07-29T09:35:34;99124.47;;;26.21;100.00
68193;BME280;55012;47.562;18.414;2023-07-29T09:38:01;99131.03;;;26.15;100.00
68193;BME280;55012;47.562;18.414;2023-07-29T09:40:26;99159.75;;;26.21;100.00
68193;BME280;55012;47.562;18.414;2023-07-29T09:42:53;99133.00;;;26.05;100.00
68193;BME280;55012;47.562;18.414;2023-07-29T09:45:23;99116.50;;;26.01;100.00
68193;BME280;55012;47.562;18.414;2023-07-29T09:47:50;99095.16;;;25.89;100.00
68193;BME280;55012;47.562;18.414;2023-07-29T09:50:16;99078.63;;;25.76;100.00
68193;BME280;55012;47.562;18.414;2023-07-29T09:52:42;99096.31;;;25.57;100.00
68193;BME280;55012;47.562;18.414;2023-07-29T09:55:10;99089.97;;;25.35;100.00
68193;BME280;55012;47.562;18.414;2023-07-29T09:57:37;99088.00;;;25.23;100.00
68193;BME280;55012;47.562;18.414;2023-07-29T10:00:04;99085.59;;;25.12;100.00
68193;BME280;55012;47.562;18.414;2023-07-29T10:02:37;99087.06;;;25.04;100.00
68193;BME280;55012;47.562;18.414;2023-07-29T10:05:03;99100.13;;;25.03;100.00
68193;BME280;55012;47.562;18.414;2023-07-29T10:07:30;99102.66;;;24.98;100.00
68193;BME280;55012;47.562;18.414;2023-07-29T10:09:57;99087.59;;;24.99;100.00
68193;BME280;55012;47.562;18.414;2023-07-29T10:12:24;99089.59;;;24.98;100.00
68193;BME280;55012;47.562;18.414;2023-07-29T10:14:50;99089.25;;;24.96;100.00
68193;BME280;55012;47.562;18.414;2023-07-29T10:17:16;99084.94;;;24.95;100.00
68193;BME280;55012;47.562;18.414;2023-07-29T10:19:42;99089.72;;;24.94;100.00
68193;BME280;55012;47.562;18.414;2023-07-29T10:22:10;99096.00;;;24.95;100.00
68193;BME280;55012;47.562;18.414;2023-07-29T10:24:39;99099.69;;;24.92;100.00
68193;BME280;55012;47.562;18.414;2023-07-29T10:27:10;99102.22;;;24.99;100.00
68193;BME280;55012;47.562;18.414;2023-07-29T10:29:38;99096.13;;;25.04;100.00
68193;BME280;55012;47.562;18.414;2023-07-29T10:32:11;99101.44;;;25.11;100.00
68193;BME280;55012;47.562;18.414;2023-07-29T10:34:37;99110.38;;;25.15;100.00
68193;BME280;55012;47.562;18.414;2023-07-29T10:37:04;99104.63;;;25.23;100.00
68193;BME280;55012;47.562;18.414;2023-07-29T10:39:40;99103.28;;;25.27;100.00
68193;BME280;55012;47.562;18.414;2023-07-29T10:42:06;99129.28;;;25.30;100.00
68193;BME280;55012;47.562;18.414;2023-07-29T10:47:28;99118.72;;;25.50;100.00
68193;BME280;55012;47.562;18.414;2023-07-29T10:49:59;99111.81;;;25.55;100.00
68193;BME280;55012;47.562;18.414;2023-07-29T10:52:51;99117.56;;;25.60;100.00
68193;BME280;55012;47.562;18.414;2023-07-29T10:55:26;99108.34;;;25.63;100.00
68193;BME280;55012;47.562;18.414;2023-07-29T10:57:51;99116.09;;;25.68;100.00
68193;BME280;55012;47.562;18.414;2023-07-29T11:00:19;99114.84;;;25.82;100.00
68193;BME280;55012;47.562;18.414;2023-07-29T11:02:58;99121.84;;;25.96;100.00
68193;BME280;55012;47.562;18.414;2023-07-29T11:05:26;99117.53;;;25.95;100.00
68193;BME280;55012;47.562;18.414;2023-07-29T11:07:51;99123.22;;;25.91;100.00
68193;BME280;55012;47.562;18.414;2023-07-29T11:10:17;99130.16;;;25.96;100.00
68193;BME280;55012;47.562;18.414;2023-07-29T11:12:49;99121.28;;;26.01;100.00
68193;BME280;55012;47.562;18.414;2023-07-29T11:17:51;99142.38;;;25.98;100.00
68193;BME280;55012;47.562;18.414;2023-07-29T11:20:19;99157.56;;;25.94;100.00
68193;BME280;55012;47.562;18.414;2023-07-29T11:22:46;99143.13;;;25.99;100.00
68193;BME280;55012;47.562;18.414;2023-07-29T11:25:13;99184.06;;;25.95;100.00
68193;BME280;55012;47.562;18.414;2023-07-29T11:27:40;99176.13;;;26.06;100.00
68193;BME280;55012;47.562;18.414;2023-07-29T11:30:07;99166.66;;;26.16;100.00
68193;BME280;55012;47.562;18.414;2023-07-29T11:32:37;99164.56;;;26.29;100.00
68193;BME280;55012;47.562;18.414;2023-07-29T11:35:08;99178.91;;;26.50;100.00
68193;BME280;55012;47.562;18.414;2023-07-29T11:37:35;99134.38;;;26.53;100.00
68193;BME280;55012;47.562;18.414;2023-07-29T11:40:01;99123.28;;;26.53;100.00
68193;BME280;55012;47.562;18.414;2023-07-29T11:42:27;99129.56;;;26.45;100.00
68193;BME280;55012;47.562;18.414;2023-07-29T11:44:56;99140.78;;;26.19;100.00
68193;BME280;55012;47.562;18.414;2023-07-29T11:47:22;99147.50;;;26.09;100.00
68193;BME280;55012;47.562;18.414;2023-07-29T11:49:47;99142.94;;;26.15;100.00
68193;BME280;55012;47.562;18.414;2023-07-29T11:52:13;99142.88;;;26.37;100.00
68193;BME280;55012;47.562;18.414;2023-07-29T11:54:39;99136.72;;;26.64;100.00
68193;BME280;55012;47.562;18.414;2023-07-29T11:57:09;99127.84;;;26.78;100.00
68193;BME280;55012;47.562;18.414;2023-07-29T11:59:35;99128.00;;;26.84;100.00
68193;BME280;55012;47.562;18.414;2023-07-29T12:02:02;99128.53;;;27.01;100.00
68193;BME280;55012;47.562;18.414;2023-07-29T12:04:30;99119.78;;;27.30;100.00
68193;BME280;55012;47.562;18.414;2023-07-29T12:06:57;99121.97;;;27.44;100.00
68193;BME280;55012;47.562;18.414;2023-07-29T12:09:22;99115.16;;;27.63;100.00
68193;BME280;55012;47.562;18.414;2023-07-29T12:11:48;99102.09;;;27.73;100.00
68193;BME280;55012;47.562;18.414;2023-07-29T12:14:16;99088.19;;;27.73;100.00
68193;BME280;55012;47.562;18.414;2023-07-29T12:16:48;99102.69;;;27.50;100.00
68193;BME280;55012;47.562;18.414;2023-07-29T12:19:15;99106.19;;;27.13;100.00
68193;BME280;55012;47.562;18.414;2023-07-29T12:21:41;99104.47;;;26.98;100.00
68193;BME280;55012;47.562;18.414;2023-07-29T12:24:07;99094.25;;;26.85;100.00
68193;BME280;55012;47.562;18.414;2023-07-29T12:26:33;99097.28;;;26.69;100.00
68193;BME280;55012;47.562;18.414;2023-07-29T12:29:14;99104.53;;;26.67;100.00
68193;BME280;55012;47.562;18.414;2023-07-29T12:31:39;99112.97;;;26.63;100.00
68193;BME280;55012;47.562;18.414;2023-07-29T12:34:05;99104.53;;;26.67;100.00
68193;BME280;55012;47.562;18.414;2023-07-29T12:37:01;99097.59;;;26.71;100.00
68193;BME280;55012;47.562;18.414;2023-07-29T12:39:30;99085.56;;;26.65;100.00
68193;BME280;55012;47.562;18.414;2023-07-29T12:41:58;99084.00;;;26.64;100.00
68193;BME280;55012;47.562;18.414;2023-07-29T12:44:25;99084.19;;;26.79;100.00
68193;BME280;55012;47.562;18.414;2023-07-29T12:46:51;99066.81;;;26.97;100.00
68193;BME280;55012;47.562;18.414;2023-07-29T12:49:17;99056.78;;;26.90;100.00
68193;BME280;55012;47.562;18.414;2023-07-29T12:51:43;99052.00;;;26.91;100.00
68193;BME280;55012;47.562;18.414;2023-07-29T12:54:09;99042.91;;;26.99;100.00